Time;durP1;ratioP1;P1;durP2;ratioP2;P2;SDS_P1;SDS_P2;PMS_P1;PMS_P2;Temp;Humidity;BMP_temperature;BMP_pressure;BME280_temperature;BME280_humidity;BME280_pressure;Samples;Min_cycle;Max_cycle;Signal;HPM_P1;HPM_P2
2022/04/07 00:00:38;;;;;;;6.10;5.50;;;;;;;11.84;59.30;98733.78;5090683;28;20195;-62
2022/04/07 00:03:05;;;;;;;9.73;7.40;;;;;;;11.66;59.52;98734.63;5090720;28;20248;-62
2022/04/07 00:05:32;;;;;;;6.50;5.90;;;;;;;11.76;59.57;98727.78;5090589;28;20199;-62
2022/04/07 00:07:59;;;;;;;10.30;6.30;;;;;;;11.75;58.88;98721.78;5090733;28;20191;-62
2022/04/07 00:10:26;;;;;;;9.73;6.97;;;;;;;11.77;58.42;98716.63;5090713;28;20187;-62
2022/04/07 00:12:53;;;;;;;9.70;6.23;;;;;;;11.69;58.87;98710.63;5090574;28;20201;-62
2022/04/07 00:15:22;;;;;;;9.13;6.53;;;;;;;11.71;58.88;98714.06;5090686;28;20198;-62
2022/04/07 00:17:49;;;;;;;6.93;5.83;;;;;;;11.69;58.25;98708.06;5090529;28;20199;-62
2022/04/07 00:20:17;;;;;;;10.17;7.80;;;;;;;11.68;58.21;98698.59;5090590;28;20218;-63
2022/04/07 00:22:43;;;;;;;7.00;6.40;;;;;;;11.60;58.38;98702.88;5090479;28;20197;-62
2022/04/07 00:25:11;;;;;;;9.90;6.37;;;;;;;11.61;58.47;98700.34;5090377;28;20186;-62
2022/04/07 00:27:38;;;;;;;8.40;6.57;;;;;;;11.55;58.12;98700.31;5090670;28;20251;-62
2022/04/07 00:30:09;;;;;;;7.55;6.70;;;;;;;11.67;57.92;98714.91;5089451;28;20526;-62
2022/04/07 00:32:43;;;;;;;9.10;7.13;;;;;;;11.77;57.54;98725.22;5090382;28;20196;-63
2022/04/07 00:35:10;;;;;;;7.07;6.37;;;;;;;11.75;57.29;98726.06;5090180;28;20222;-62
2022/04/07 00:37:37;;;;;;;7.13;6.43;;;;;;;11.77;57.10;98721.78;5090896;28;20195;-62
2022/04/07 00:40:06;;;;;;;9.47;6.40;;;;;;;11.77;57.37;98716.63;5090831;28;20224;-62
2022/04/07 00:42:33;;;;;;;8.17;6.37;;;;;;;11.68;57.29;98698.59;5090497;28;20271;-62
2022/04/07 00:45:00;;;;;;;7.73;6.53;;;;;;;11.49;57.62;98691.75;5090337;28;20234;-62
2022/04/07 00:47:27;;;;;;;7.73;6.93;;;;;;;11.43;58.20;98676.31;5090299;28;20278;-62
2022/04/07 00:49:55;;;;;;;8.87;6.60;;;;;;;11.32;58.68;98678.06;5090290;28;20187;-62
2022/04/07 00:52:22;;;;;;;9.10;6.63;;;;;;;11.27;59.10;98678.91;5090046;28;20191;-62
2022/04/07 00:54:50;;;;;;;9.63;7.27;;;;;;;11.23;59.20;98681.47;5090360;28;20294;-62
2022/04/07 00:57:17;;;;;;;9.23;7.20;;;;;;;11.19;59.27;98684.88;5090271;28;20198;-62
2022/04/07 00:59:45;;;;;;;7.60;6.80;;;;;;;11.18;59.83;98690.88;5089402;28;20700;-62
2022/04/07 01:02:12;;;;;;;13.63;6.83;;;;;;;11.23;59.29;98684.88;5090225;28;20263;-62
2022/04/07 01:04:39;;;;;;;8.53;7.50;;;;;;;11.26;59.35;98676.34;5090026;28;20198;-62
2022/04/07 01:07:09;;;;;;;10.10;7.33;;;;;;;11.33;59.01;98677.16;5090302;28;20298;-62
2022/04/07 01:09:36;;;;;;;11.20;7.77;;;;;;;11.15;59.39;98673.72;5090290;28;20270;-62
2022/04/07 01:12:03;;;;;;;11.27;7.77;;;;;;;11.10;59.80;98674.59;5090100;28;20565;-62
2022/04/07 01:14:30;;;;;;;8.80;7.87;;;;;;;11.16;59.53;98670.31;5090069;28;20197;-62
2022/04/07 01:16:57;;;;;;;9.37;8.20;;;;;;;11.19;59.16;98667.75;5089926;28;20233;-62
2022/04/07 01:19:24;;;;;;;9.23;7.70;;;;;;;11.26;59.13;98678.91;5090202;28;20222;-62
2022/04/07 01:21:51;;;;;;;11.40;9.23;;;;;;;11.14;59.55;98672.03;5089335;28;20436;-62
2022/04/07 01:24:30;;;;;;;8.80;7.63;;;;;;;11.27;58.81;98676.31;5090072;28;20298;-62
2022/04/07 01:26:58;;;;;;;9.30;7.63;;;;;;;11.25;58.72;98678.03;5090086;28;20187;-62
2022/04/07 01:29:26;;;;;;;10.60;8.73;;;;;;;10.99;59.14;98641.16;5090206;28;20202;-62
2022/04/07 01:31:53;;;;;;;11.33;8.77;;;;;;;11.23;58.59;98676.34;5090104;28;20903;-63
2022/04/07 01:34:20;;;;;;;10.83;8.50;;;;;;;11.10;58.72;98654.88;5090064;28;20198;-62
2022/04/07 01:36:50;;;;;;;11.13;8.30;;;;;;;11.02;59.17;98664.31;5089785;28;20731;-62
2022/04/07 01:39:21;;;;;;;12.30;9.03;;;;;;;10.94;60.15;98660.00;5089749;28;20701;-62
2022/04/07 01:41:52;;;;;;;10.77;8.37;;;;;;;11.03;59.51;98662.59;5089672;28;20290;-61
2022/04/07 01:44:19;;;;;;;10.17;8.57;;;;;;;11.04;59.78;98648.91;5092628;28;20226;-62
2022/04/07 01:46:47;;;;;;;9.50;8.57;;;;;;;11.01;59.42;98631.75;5093624;28;20269;-62
2022/04/07 01:49:14;;;;;;;10.60;9.17;;;;;;;10.88;60.21;98617.16;5093527;28;20198;-63
2022/04/07 01:51:43;;;;;;;9.80;8.90;;;;;;;10.73;60.56;98613.72;5093224;28;20286;-62
2022/04/07 01:54:11;;;;;;;11.57;9.43;;;;;;;10.61;60.65;98612.00;5093221;28;20197;-62
2022/04/07 01:56:39;;;;;;;11.00;9.33;;;;;;;10.56;61.05;98617.13;5093133;28;20186;-62
2022/04/07 01:59:09;;;;;;;11.97;9.40;;;;;;;10.44;61.37;98618.78;5092907;28;20222;-62
2022/04/07 02:01:36;;;;;;;10.83;9.77;;;;;;;10.37;61.79;98596.53;5093140;28;20191;-61
2022/04/07 02:04:04;;;;;;;13.87;10.10;;;;;;;10.34;62.18;98596.53;5093370;28;20196;-62
2022/04/07 02:06:31;;;;;;;11.27;10.00;;;;;;;10.29;62.21;98599.09;5082472;28;20192;-62
2022/04/07 02:08:59;;;;;;;11.80;9.67;;;;;;;10.30;62.25;98605.09;5072896;28;20191;-62
2022/04/07 02:11:28;;;;;;;12.00;9.40;;;;;;;10.34;62.39;98601.66;5073042;28;20195;-62
2022/04/07 02:13:55;;;;;;;12.40;11.00;;;;;;;10.34;62.71;98596.53;5092027;28;20471;-63
2022/04/07 02:16:23;;;;;;;11.53;10.33;;;;;;;10.42;62.34;98584.56;5092410;28;20194;-61
2022/04/07 02:18:50;;;;;;;10.77;9.67;;;;;;;10.43;62.34;98587.16;5092803;28;20191;-62
2022/04/07 02:21:17;;;;;;;14.13;10.03;;;;;;;10.53;62.59;98573.47;5092758;28;20672;-62
2022/04/07 02:23:44;;;;;;;10.80;9.70;;;;;;;10.48;62.79;98553.78;5092680;28;20202;-57
2022/04/07 02:26:12;;;;;;;12.00;10.07;;;;;;;10.42;62.85;98558.88;5092473;28;20692;-57
2022/04/07 02:28:39;;;;;;;11.47;10.17;;;;;;;10.40;63.31;98556.34;5092709;28;20195;-57
2022/04/07 02:31:07;;;;;;;11.67;10.13;;;;;;;10.37;63.16;98533.22;5092417;28;20219;-58
2022/04/07 02:33:35;;;;;;;15.23;11.00;;;;;;;10.36;63.73;98543.47;5092421;28;20787;-58
2022/04/07 02:36:02;;;;;;;12.57;10.13;;;;;;;10.43;63.55;98550.34;5092149;28;20704;-58
2022/04/07 02:38:29;;;;;;;13.83;10.70;;;;;;;10.43;63.38;98555.47;5092406;28;20285;-58
2022/04/07 02:40:56;;;;;;;12.30;9.77;;;;;;;10.43;63.21;98542.63;5092294;28;20183;-58
2022/04/07 02:43:23;;;;;;;14.53;10.90;;;;;;;10.51;63.10;98540.94;5092229;28;20198;-58
2022/04/07 02:45:50;;;;;;;12.17;10.97;;;;;;;10.52;62.75;98543.50;5092245;28;20190;-58
2022/04/07 02:48:17;;;;;;;11.90;10.30;;;;;;;10.50;63.03;98540.06;5092223;28;20293;-58
2022/04/07 02:50:45;;;;;;;14.40;11.33;;;;;;;10.52;63.32;98540.94;5092190;28;20223;-58
2022/04/07 02:53:13;;;;;;;14.33;10.40;;;;;;;10.44;63.38;98532.34;5092019;28;20198;-58
2022/04/07 02:55:40;;;;;;;17.00;12.70;;;;;;;10.54;63.48;98518.69;5092162;28;20195;-58
2022/04/07 02:58:08;;;;;;;14.10;12.10;;;;;;;10.48;63.12;98510.13;5092069;28;20197;-58
2022/04/07 03:00:35;;;;;;;14.53;11.13;;;;;;;10.43;63.89;98514.41;5092099;28;20199;-58
2022/04/07 03:03:02;;;;;;;28.10;17.97;;;;;;;10.44;63.62;98519.50;5091976;28;20278;-58
2022/04/07 03:05:29;;;;;;;33.03;21.87;;;;;;;10.49;63.52;98528.06;5091689;28;20194;-58
2022/04/07 03:07:57;;;;;;;15.40;11.87;;;;;;;10.53;63.56;98534.94;5092049;28;20276;-59
2022/04/07 03:10:24;;;;;;;13.87;11.00;;;;;;;10.58;63.33;98532.38;5091576;28;20236;-58
2022/04/07 03:12:51;;;;;;;15.90;11.13;;;;;;;10.57;63.65;98523.84;5091895;28;20198;-58
2022/04/07 03:15:18;;;;;;;14.20;11.13;;;;;;;10.47;63.42;98508.38;5091560;28;20191;-58
2022/04/07 03:17:45;;;;;;;12.07;10.13;;;;;;;10.49;63.09;98492.13;5091494;28;20222;-59
2022/04/07 03:20:12;;;;;;;12.63;11.35;;;;;;;10.58;62.98;98481.88;5090966;28;20511;-59
2022/04/07 03:22:39;;;;;;;12.80;10.53;;;;;;;10.63;63.16;98479.28;5091531;28;20679;-57
2022/04/07 03:25:09;;;;;;;12.03;10.17;;;;;;;10.62;63.45;98503.28;5091439;28;20680;-57
2022/04/07 03:27:35;;;;;;;11.17;10.13;;;;;;;10.68;63.52;98509.25;5091379;28;20274;-58
2022/04/07 03:30:03;;;;;;;12.50;10.53;;;;;;;10.62;63.55;98498.13;5091235;28;20225;-57
2022/04/07 03:32:30;;;;;;;12.13;10.83;;;;;;;10.65;63.40;98493.00;5091352;28;20681;-58
2022/04/07 03:34:57;;;;;;;12.30;9.97;;;;;;;10.72;63.33;98499.84;5090971;28;20206;-57
2022/04/07 03:37:24;;;;;;;12.23;10.97;;;;;;;10.76;63.14;98516.13;5091164;28;20229;-58
2022/04/07 03:39:51;;;;;;;11.37;9.97;;;;;;;10.62;63.38;98510.97;5091169;28;20189;-59
2022/04/07 03:42:19;;;;;;;11.73;10.00;;;;;;;10.64;63.48;98506.69;5090987;28;20234;-58
2022/04/07 03:44:46;;;;;;;11.37;10.17;;;;;;;10.51;63.79;98493.00;5091143;28;20195;-58
2022/04/07 03:47:13;;;;;;;13.40;10.67;;;;;;;10.46;64.13;98481.03;5091317;28;20255;-58
2022/04/07 03:49:40;;;;;;;11.63;10.20;;;;;;;10.44;64.08;98485.28;5090897;28;20204;-58
2022/04/07 03:52:08;;;;;;;16.03;11.03;;;;;;;10.45;63.80;98487.00;5090827;28;20194;-58
2022/04/07 03:54:35;;;;;;;11.47;10.13;;;;;;;10.54;63.45;98489.56;5091049;28;20195;-58
2022/04/07 03:57:02;;;;;;;14.27;10.47;;;;;;;10.56;63.37;98481.00;5090694;28;20202;-58
2022/04/07 03:59:33;;;;;;;12.75;11.35;;;;;;;10.62;63.21;98477.59;5090376;28;20443;-58
2022/04/07 04:02:00;;;;;;;12.77;11.47;;;;;;;10.62;63.70;98457.03;5091113;28;20277;-58
2022/04/07 04:04:27;;;;;;;12.93;11.23;;;;;;;10.52;63.61;98445.06;5090971;28;20198;-58
2022/04/07 04:06:54;;;;;;;15.77;11.57;;;;;;;10.58;63.41;98450.19;5090279;28;20199;-58
2022/04/07 04:09:21;;;;;;;13.00;11.73;;;;;;;10.66;63.07;98451.91;5089041;28;20274;-58
2022/04/07 04:11:48;;;;;;;16.30;12.50;;;;;;;10.70;63.04;98452.75;5090561;28;20676;-58
2022/04/07 04:14:15;;;;;;;15.47;11.53;;;;;;;10.71;62.47;98439.06;5090928;28;20274;-59
2022/04/07 04:16:43;;;;;;;14.27;11.50;;;;;;;10.76;62.24;98437.34;5090779;28;20214;-58
2022/04/07 04:19:10;;;;;;;14.87;11.87;;;;;;;10.80;62.83;98444.16;5084825;28;20187;-58
2022/04/07 04:21:37;;;;;;;16.50;12.17;;;;;;;10.81;62.60;98468.16;5086063;28;20183;-58
2022/04/07 04:24:05;;;;;;;13.37;11.57;;;;;;;10.78;62.61;98463.00;5090027;28;20226;-58
2022/04/07 04:26:32;;;;;;;12.37;10.77;;;;;;;10.80;62.07;98451.00;5090129;28;20301;-58
2022/04/07 04:28:59;;;;;;;12.83;11.53;;;;;;;10.64;61.90;98439.91;5089205;28;20190;-58
2022/04/07 04:31:26;;;;;;;13.07;11.37;;;;;;;10.59;62.52;98454.47;5089730;28;20214;-58
2022/04/07 04:33:54;;;;;;;17.77;12.40;;;;;;;10.70;62.33;98460.47;5090187;28;20202;-58
2022/04/07 04:36:22;;;;;;;12.70;11.37;;;;;;;10.66;61.98;98444.19;5090272;28;20222;-59
2022/04/07 04:38:49;;;;;;;13.57;11.67;;;;;;;10.79;62.14;98455.31;5090188;28;20197;-58
2022/04/07 04:41:16;;;;;;;15.17;12.10;;;;;;;10.87;62.42;98452.72;5090163;28;20193;-58
2022/04/07 04:43:43;;;;;;;15.43;12.17;;;;;;;10.87;61.48;98445.03;5084779;28;20662;-57
2022/04/07 04:46:10;;;;;;;17.17;12.87;;;;;;;10.82;61.44;98447.63;5084870;28;20278;-60
2022/04/07 04:48:38;;;;;;;17.27;14.30;;;;;;;10.90;61.69;98437.31;5088832;28;20515;-57
2022/04/07 04:51:06;;;;;;;21.30;13.73;;;;;;;11.04;61.51;98428.69;5089421;28;20529;-59
2022/04/07 04:53:33;;;;;;;18.30;13.33;;;;;;;11.15;61.09;98437.22;5089390;28;20197;-58
2022/04/07 04:56:00;;;;;;;16.73;12.37;;;;;;;11.16;60.25;98444.09;5089315;28;20183;-58
2022/04/07 04:58:27;;;;;;;15.97;11.80;;;;;;;11.27;60.21;98462.03;5081393;28;20293;-58
2022/04/07 05:00:54;;;;;;;21.48;13.18;;;;;;;11.36;59.19;98461.16;5084473;28;20444;-59
2022/04/07 05:03:21;;;;;;;23.77;13.37;;;;;;;11.22;59.76;98468.91;5088473;28;20195;-60
2022/04/07 05:05:48;;;;;;;21.23;12.67;;;;;;;11.35;59.95;98459.44;5089442;28;20277;-59
2022/04/07 05:08:16;;;;;;;15.97;12.73;;;;;;;11.41;59.06;98444.00;5089328;28;20206;-58
2022/04/07 05:10:43;;;;;;;18.23;12.40;;;;;;;11.38;58.85;98426.00;5083658;28;20738;-57
2022/04/07 05:13:10;;;;;;;20.73;12.77;;;;;;;11.32;59.29;98428.63;5089189;28;20203;-58
2022/04/07 05:15:39;;;;;;;15.27;13.00;;;;;;;11.41;59.55;98437.13;5089245;28;20202;-58
2022/04/07 05:18:06;;;;;;;22.20;12.97;;;;;;;11.50;59.39;98443.97;5086231;28;20191;-59
2022/04/07 05:20:33;;;;;;;22.63;13.60;;;;;;;11.61;59.00;98443.06;5093262;28;20189;-59
2022/04/07 05:23:00;;;;;;;15.10;13.53;;;;;;;11.51;58.63;98446.53;5092872;28;20217;-58
2022/04/07 05:25:29;;;;;;;13.80;12.33;;;;;;;11.47;58.70;98423.41;5092891;28;20194;-58
2022/04/07 05:27:56;;;;;;;18.27;13.60;;;;;;;11.46;58.92;98442.25;5091353;28;20198;-58
2022/04/07 05:30:22;;;;;;;16.47;13.50;;;;;;;11.62;58.72;98439.59;5088541;28;20202;-58
2022/04/07 05:32:49;;;;;;;15.47;13.30;;;;;;;11.69;57.77;98417.31;5092548;28;20514;-58
2022/04/07 05:35:16;;;;;;;19.73;13.50;;;;;;;11.70;58.01;98408.75;5091793;28;20215;-58
2022/04/07 05:37:43;;;;;;;19.95;15.02;;;;;;;11.79;58.02;98403.53;5091801;28;20515;-58
2022/04/07 05:40:12;;;;;;;16.90;14.20;;;;;;;12.00;57.30;98411.13;5092037;28;20663;-58
2022/04/07 05:42:41;;;;;;;18.77;13.33;;;;;;;12.07;56.48;98407.63;5083411;28;20757;-59
2022/04/07 05:45:09;;;;;;;20.73;14.23;;;;;;;12.11;56.43;98383.59;5089857;28;20179;-58
2022/04/07 05:47:40;;;;;;;18.13;13.03;;;;;;;11.94;58.15;98363.97;5091154;28;20195;-58
2022/04/07 05:50:08;;;;;;;18.17;14.90;;;;;;;12.05;58.77;98395.66;5089758;28;20657;-58
2022/04/07 05:52:35;;;;;;;21.53;14.97;;;;;;;12.11;60.86;98390.47;5092315;28;20195;-58
2022/04/07 05:55:02;;;;;;;20.23;14.03;;;;;;;12.12;60.83;98367.25;5092428;28;20194;-58
2022/04/07 05:57:30;;;;;;;18.80;14.13;;;;;;;12.07;58.87;98361.28;5092131;28;20191;-59
2022/04/07 06:00:07;;;;;;;24.20;15.07;;;;;;;12.08;59.42;98352.72;5082804;28;20195;-62
2022/04/07 06:02:34;;;;;;;18.10;13.67;;;;;;;12.04;58.38;98345.88;5087382;28;20190;-62
2022/04/07 06:05:01;;;;;;;19.47;14.03;;;;;;;12.08;57.26;98349.28;5092411;28;20669;-61
2022/04/07 06:07:28;;;;;;;16.40;13.87;;;;;;;11.98;58.44;98345.06;5083477;28;20191;-62
2022/04/07 06:09:55;;;;;;;19.70;14.93;;;;;;;12.09;57.66;98359.56;5090716;28;20194;-63
2022/04/07 06:12:21;;;;;;;19.27;14.33;;;;;;;12.21;57.19;98366.34;5087951;28;20210;-62
2022/04/07 06:14:48;;;;;;;23.03;13.60;;;;;;;12.39;57.04;98353.28;5090250;28;20190;-62
2022/04/07 06:17:17;;;;;;;19.07;14.33;;;;;;;12.43;55.64;98347.25;5089096;28;20911;-62
2022/04/07 06:19:43;;;;;;;26.17;13.73;;;;;;;12.36;55.93;98343.84;5091702;28;20202;-63
2022/04/07 06:22:12;;;;;;;28.00;14.40;;;;;;;12.18;56.07;98338.03;5091626;28;20183;-62
2022/04/07 06:24:39;;;;;;;25.53;15.10;;;;;;;12.18;57.12;98336.31;5091419;28;20195;-62
2022/04/07 06:27:06;;;;;;;20.00;16.38;;;;;;;12.27;56.40;98336.25;5091614;28;20942;-62
2022/04/07 06:29:33;;;;;;;20.77;14.20;;;;;;;12.46;56.09;98331.75;5091465;28;20187;-62
2022/04/07 06:32:00;;;;;;;26.00;14.23;;;;;;;12.55;54.90;98323.09;5092265;28;20250;-63
2022/04/07 06:34:28;;;;;;;19.93;14.97;;;;;;;12.47;54.93;98324.91;5090076;28;20277;-62
2022/04/07 06:36:55;;;;;;;19.47;14.17;;;;;;;12.49;55.63;98323.16;5088657;28;20242;-62
2022/04/07 06:39:22;;;;;;;24.00;14.20;;;;;;;12.47;55.01;98320.56;5091960;28;20577;-61
2022/04/07 06:41:49;;;;;;;21.23;14.87;;;;;;;12.47;55.33;98317.16;5091891;28;20202;-61
2022/04/07 06:44:15;;;;;;;20.53;13.80;;;;;;;12.37;55.18;98314.66;5086344;28;20199;-61
2022/04/07 06:46:42;;;;;;;16.67;13.53;;;;;;;12.33;55.72;98307.84;5085851;28;20679;-61
2022/04/07 06:49:09;;;;;;;17.40;15.00;;;;;;;12.33;55.88;98310.41;5090900;28;20202;-62
2022/04/07 06:51:38;;;;;;;19.03;13.97;;;;;;;12.23;55.65;98310.50;5091365;28;20250;-61
2022/04/07 06:54:05;;;;;;;18.20;15.00;;;;;;;12.28;56.49;98299.31;5089314;28;20278;-62
2022/04/07 06:56:32;;;;;;;20.47;13.93;;;;;;;12.50;56.28;98293.94;5091227;28;20699;-61
2022/04/07 06:58:59;;;;;;;18.30;14.97;;;;;;;12.73;55.65;98290.25;5091149;28;20191;-60
2022/04/07 07:01:26;;;;;;;16.07;14.23;;;;;;;12.94;54.47;98296.84;5091412;28;20251;-60
2022/04/07 07:03:53;;;;;;;16.77;14.03;;;;;;;13.00;53.94;98297.63;5091093;28;20693;-60
2022/04/07 07:06:20;;;;;;;15.00;13.50;;;;;;;12.87;54.45;98282.34;5091302;28;20607;-61
2022/04/07 07:08:48;;;;;;;17.73;14.33;;;;;;;12.91;54.50;98276.28;5091221;28;20585;-60
2022/04/07 07:11:15;;;;;;;16.00;14.37;;;;;;;13.10;54.55;98271.78;5090982;28;20218;-61
2022/04/07 07:13:42;;;;;;;16.17;13.37;;;;;;;13.09;53.12;98268.34;5089451;28;20194;-60
2022/04/07 07:16:09;;;;;;;17.60;14.10;;;;;;;13.04;53.34;98252.03;5091115;28;20198;-60
2022/04/07 07:18:38;;;;;;;16.80;15.00;;;;;;;13.19;53.68;98248.41;5091072;28;20325;-60
2022/04/07 07:21:05;;;;;;;16.50;14.40;;;;;;;13.18;52.94;98239.00;5091410;28;20270;-60
2022/04/07 07:23:33;;;;;;;18.50;14.40;;;;;;;13.37;52.56;98256.75;5091206;28;20568;-59
2022/04/07 07:26:01;;;;;;;16.83;14.63;;;;;;;13.28;52.20;98228.50;5090838;28;20264;-60
2022/04/07 07:28:28;;;;;;;17.07;14.10;;;;;;;13.63;52.21;98252.91;5090940;28;20278;-59
2022/04/07 07:30:55;;;;;;;28.27;15.10;;;;;;;13.76;52.05;98246.69;5090890;28;20719;-59
2022/04/07 07:33:22;;;;;;;20.10;16.30;;;;;;;13.85;51.35;98241.34;5090079;28;20522;-59
2022/04/07 07:35:49;;;;;;;18.13;16.00;;;;;;;13.91;51.24;98246.41;5089808;28;20234;-60
2022/04/07 07:38:16;;;;;;;20.67;15.10;;;;;;;14.01;50.74;98233.31;5085904;28;20217;-60
2022/04/07 07:40:43;;;;;;;19.27;15.43;;;;;;;14.11;50.44;98232.28;5089452;28;20518;-59
2022/04/07 07:43:11;;;;;;;17.87;14.67;;;;;;;14.08;50.55;98226.31;5090482;28;20217;-60
2022/04/07 07:45:38;;;;;;;19.90;14.60;;;;;;;14.14;49.48;98224.50;5090780;28;20194;-60
2022/04/07 07:48:05;;;;;;;17.87;13.87;;;;;;;14.03;49.94;98216.09;5090591;28;20197;-59
2022/04/07 07:50:32;;;;;;;17.07;14.60;;;;;;;14.13;49.83;98229.66;5090594;28;20190;-59
2022/04/07 07:52:59;;;;;;;22.30;18.33;;;;;;;14.40;49.43;98225.75;5090511;28;20652;-59
2022/04/07 07:55:26;;;;;;;16.57;14.80;;;;;;;14.69;49.14;98232.06;5090031;28;20644;-59
2022/04/07 07:57:54;;;;;;;18.70;13.60;;;;;;;14.90;48.47;98220.41;5090487;28;20194;-60
2022/04/07 08:00:24;;;;;;;19.63;15.23;;;;;;;15.26;47.65;98210.97;5089844;28;20282;-60
2022/04/07 08:02:51;;;;;;;22.67;16.63;;;;;;;15.38;46.55;98211.53;5089822;28;20187;-60
2022/04/07 08:05:18;;;;;;;16.10;13.70;;;;;;;14.97;46.87;98221.97;5089929;28;20191;-61
2022/04/07 08:07:45;;;;;;;24.53;16.60;;;;;;;15.24;47.26;98212.75;5089943;28;20198;-60
2022/04/07 08:10:12;;;;;;;31.97;20.20;;;;;;;15.34;47.02;98198.72;5090084;28;20566;-60
2022/04/07 08:12:40;;;;;;;22.83;16.43;;;;;;;15.63;46.65;98198.88;5090244;28;20334;-60
2022/04/07 08:15:07;;;;;;;20.27;14.97;;;;;;;15.67;45.93;98189.31;5089294;28;20199;-60
2022/04/07 08:17:36;;;;;;;17.73;13.83;;;;;;;15.82;45.39;98194.94;5088945;28;20287;-61
2022/04/07 08:20:04;;;;;;;17.93;13.87;;;;;;;15.65;45.56;98191.09;5088586;28;20198;-61
2022/04/07 08:22:31;;;;;;;18.63;14.50;;;;;;;15.67;45.32;98195.34;5088736;28;20185;-60
2022/04/07 08:24:58;;;;;;;17.33;15.52;;;;;;;15.81;45.46;98200.16;5088045;28;20562;-60
2022/04/07 08:27:25;;;;;;;17.93;14.20;;;;;;;15.84;44.88;98187.16;5088938;28;20200;-60
2022/04/07 08:29:52;;;;;;;16.13;12.60;;;;;;;15.84;44.80;98188.00;5089388;28;20191;-61
2022/04/07 08:32:19;;;;;;;19.70;14.53;;;;;;;15.70;45.39;98187.50;5089999;28;20217;-61
2022/04/07 08:34:47;;;;;;;16.57;14.40;;;;;;;15.42;45.75;98183.84;5089447;28;20676;-61
2022/04/07 08:37:14;;;;;;;17.63;14.23;;;;;;;14.95;46.74;98178.91;5089819;28;20198;-61
2022/04/07 08:39:41;;;;;;;18.90;14.23;;;;;;;14.67;47.89;98171.75;5090060;28;20515;-61
2022/04/07 08:42:08;;;;;;;19.07;14.40;;;;;;;14.85;47.96;98154.16;5089573;28;20278;-61
2022/04/07 08:44:36;;;;;;;18.83;14.50;;;;;;;14.86;47.87;98150.69;5089692;28;20661;-61
2022/04/07 08:47:03;;;;;;;16.13;13.60;;;;;;;14.99;47.83;98144.34;5089879;28;20196;-60
2022/04/07 08:49:32;;;;;;;15.43;13.83;;;;;;;15.21;47.07;98128.31;5089952;28;20547;-60
2022/04/07 08:52:01;;;;;;;17.70;14.23;;;;;;;15.34;47.01;98118.50;5090607;28;20312;-60
2022/04/07 08:54:28;;;;;;;18.97;15.33;;;;;;;15.34;46.65;98110.72;5093615;28;20665;-59
2022/04/07 08:56:55;;;;;;;17.60;14.73;;;;;;;15.41;46.59;98104.50;5094061;28;20191;-59
2022/04/07 08:59:21;;;;;;;16.23;13.83;;;;;;;15.47;46.06;98093.16;5093918;28;20196;-59
2022/04/07 09:01:48;;;;;;;16.67;14.87;;;;;;;15.51;46.10;98085.31;5093640;28;20195;-60
2022/04/07 09:04:15;;;;;;;21.40;16.42;;;;;;;15.30;46.67;98065.09;5093259;28;20441;-59
2022/04/07 09:06:43;;;;;;;17.53;15.10;;;;;;;15.52;46.59;98055.09;5093575;28;20668;-59
2022/04/07 09:09:14;;;;;;;20.27;16.13;;;;;;;15.75;46.45;98057.91;5093362;28;20756;-59
2022/04/07 09:11:41;;;;;;;18.90;16.53;;;;;;;15.80;46.13;98048.25;5093345;28;20250;-60
2022/04/07 09:14:10;;;;;;;20.37;14.43;;;;;;;15.83;45.96;98043.84;5093365;28;20193;-59
2022/04/07 09:16:39;;;;;;;18.63;14.37;;;;;;;15.86;45.93;98042.91;5093582;28;20281;-59
2022/04/07 09:19:06;;;;;;;21.70;15.07;;;;;;;15.80;46.23;98033.56;5092845;28;20247;-61
2022/04/07 09:21:34;;;;;;;20.60;15.37;;;;;;;15.86;46.27;98029.97;5093143;28;20191;-59
2022/04/07 09:24:05;;;;;;;17.03;14.60;;;;;;;15.87;46.57;98017.00;5093441;28;20316;-60
2022/04/07 09:26:35;;;;;;;16.43;14.63;;;;;;;15.63;46.65;98002.13;5092983;28;20191;-59
2022/04/07 09:29:08;;;;;;;21.10;15.13;;;;;;;15.49;46.61;97980.97;5093443;28;20205;-59
2022/04/07 09:31:39;;;;;;;16.57;14.47;;;;;;;15.58;47.12;98009.16;5093316;28;20222;-60
2022/04/07 09:34:06;;;;;;;16.10;14.50;;;;;;;15.54;47.21;98002.38;5092609;28;20269;-60
2022/04/07 09:36:34;;;;;;;22.67;15.73;;;;;;;15.43;47.94;98006.13;5092471;28;20234;-61
2022/04/07 09:39:02;;;;;;;16.80;14.10;;;;;;;15.46;47.59;98001.75;5092749;28;20287;-61
2022/04/07 09:41:30;;;;;;;19.13;15.10;;;;;;;15.48;47.70;98012.06;5092737;28;20198;-61
2022/04/07 09:44:01;;;;;;;23.90;16.53;;;;;;;15.38;47.64;98012.25;5092815;28;20206;-62
2022/04/07 09:46:34;;;;;;;22.80;16.67;;;;;;;15.55;47.56;98029.94;5092523;28;20719;-61
2022/04/07 09:49:03;;;;;;;21.67;15.57;;;;;;;15.52;47.17;98034.38;5092844;28;20277;-61
2022/04/07 09:51:31;;;;;;;23.27;16.23;;;;;;;15.51;47.13;98049.06;5092478;28;20191;-61
2022/04/07 09:53:58;;;;;;;19.23;14.37;;;;;;;15.57;47.17;98037.69;5092248;28;20211;-61
2022/04/07 09:56:29;;;;;;;19.87;15.33;;;;;;;15.54;47.27;98038.63;5092292;28;20669;-61
2022/04/07 09:58:58;;;;;;;18.67;16.60;;;;;;;15.60;47.13;98033.25;5091165;28;20436;-61
2022/04/07 10:01:25;;;;;;;19.50;15.83;;;;;;;15.59;46.44;97991.91;5092270;28;20281;-60
2022/04/07 10:03:53;;;;;;;17.10;15.30;;;;;;;15.78;45.99;98009.47;5091364;28;20193;-61
2022/04/07 10:06:20;;;;;;;22.00;15.27;;;;;;;15.74;46.25;97997.47;5091058;28;20195;-61
2022/04/07 10:08:51;;;;;;;18.77;15.20;;;;;;;15.38;47.03;97981.19;5090678;28;20297;-61
2022/04/07 10:11:19;;;;;;;19.85;16.92;;;;;;;15.76;46.01;97977.59;5087921;28;20476;-61
2022/04/07 10:13:48;;;;;;;17.93;15.17;;;;;;;15.95;45.52;97972.72;5088981;28;20574;-59
2022/04/07 10:16:17;;;;;;;17.70;14.10;;;;;;;15.77;45.48;97958.56;5092006;28;20198;-60
2022/04/07 10:18:48;;;;;;;21.30;16.80;;;;;;;16.17;44.87;97952.19;5091416;28;20534;-59
2022/04/07 10:21:31;;;;;;;25.80;16.37;;;;;;;16.60;44.04;97936.16;5091618;28;20672;-58
2022/04/07 10:24:14;;;;;;;20.07;14.63;;;;;;;16.68;43.26;97934.16;5081335;28;20187;-59
2022/04/07 10:26:45;;;;;;;18.17;14.43;;;;;;;16.81;42.94;97925.91;5089381;28;20266;-59
2022/04/07 10:29:22;;;;;;;18.10;15.37;;;;;;;16.91;42.70;97919.53;5088539;28;20203;-59
2022/04/07 10:32:19;;;;;;;18.67;15.40;;;;;;;17.06;42.57;97908.59;5090951;28;20249;-60
2022/04/07 10:34:59;;;;;;;20.07;14.87;;;;;;;17.16;42.42;97900.50;5090911;28;20197;-60
2022/04/07 10:37:42;;;;;;;19.40;15.83;;;;;;;17.26;42.05;97907.91;5090991;28;20194;-60
2022/04/07 10:40:37;;;;;;;18.77;16.17;;;;;;;17.24;42.09;97919.25;5091252;28;20195;-60
2022/04/07 10:43:13;;;;;;;21.80;16.57;;;;;;;17.27;41.86;97920.00;5091568;28;20218;-60
2022/04/07 10:45:41;;;;;;;23.20;15.43;;;;;;;17.40;41.69;97918.66;5070732;28;20187;-60
2022/04/07 10:48:28;;;;;;;20.83;15.63;;;;;;;17.53;41.39;97922.50;5071032;28;20191;-60
2022/04/07 10:50:57;;;;;;;17.93;14.70;;;;;;;17.48;41.20;97942.59;5079141;28;20199;-59
2022/04/07 10:53:27;;;;;;;19.70;15.97;;;;;;;17.39;40.97;97947.25;5091323;28;20223;-59
2022/04/07 10:56:06;;;;;;;21.30;14.80;;;;;;;17.57;41.10;97957.03;5091138;28;20256;-59
2022/04/07 10:58:44;;;;;;;20.23;14.30;;;;;;;17.69;40.69;97960.00;5083037;28;20198;-59
2022/04/07 11:01:16;;;;;;;21.60;14.88;;;;;;;17.76;40.46;97959.78;5088963;28;20835;-60
2022/04/07 11:04:23;;;;;;;18.10;12.83;;;;;;;17.77;39.81;97943.31;5088933;28;20571;-59
2022/04/07 11:07:15;;;;;;;13.97;12.50;;;;;;;17.48;40.91;97941.72;5089798;28;20190;-59
2022/04/07 11:09:48;;;;;;;16.17;12.60;;;;;;;17.58;41.04;97917.13;5088914;28;20189;-59
2022/04/07 11:12:23;;;;;;;14.53;11.97;;;;;;;17.80;40.06;97905.03;5090309;28;20211;-60
2022/04/07 11:14:52;;;;;;;14.47;10.93;;;;;;;17.80;39.28;97902.44;5090161;28;20201;-59
2022/04/07 11:17:38;;;;;;;18.53;11.47;;;;;;;18.14;39.53;97904.59;5089874;28;20249;-59
2022/04/07 11:20:13;;;;;;;14.97;12.57;;;;;;;18.32;38.73;97923.84;5090737;28;20187;-59
2022/04/07 11:22:51;;;;;;;20.50;13.00;;;;;;;18.45;37.90;97910.28;5090627;28;20274;-60
2022/04/07 11:25:24;;;;;;;17.73;13.13;;;;;;;18.34;38.70;97904.66;5090101;28;20776;-59